createdAt,value
2022-08-12T00:00:10.439Z,2.73
2022-08-12T00:03:20.833Z,3.17
2022-08-12T00:06:31.265Z,2.33
2022-08-12T00:09:42.122Z,2.60
2022-08-12T00:12:49.964Z,2.53
2022-08-12T00:16:00.593Z,2.90
2022-08-12T00:19:10.552Z,3.00
2022-08-12T00:22:19.501Z,2.57
2022-08-12T00:26:05.464Z,2.90
2022-08-12T00:29:05.300Z,2.57
2022-08-12T00:32:16.724Z,3.67
2022-08-12T00:35:41.664Z,2.87
2022-08-12T00:38:49.490Z,2.77
2022-08-12T00:41:58.494Z,3.27
2022-08-12T00:44:49.794Z,2.80
2022-08-12T00:47:40.198Z,2.40
2022-08-12T00:50:33.024Z,2.77
2022-08-12T00:53:29.469Z,2.30
2022-08-12T00:56:30.981Z,2.73
2022-08-12T00:59:23.756Z,3.03
2022-08-12T01:02:17.201Z,3.13
2022-08-12T01:05:28.793Z,2.70
2022-08-12T01:08:46.983Z,2.60
2022-08-12T01:11:43.522Z,2.67
2022-08-12T01:14:41.405Z,3.23
2022-08-12T01:17:32.313Z,3.70
2022-08-12T01:20:29.650Z,3.47
2022-08-12T01:23:37.370Z,3.00
2022-08-12T01:26:31.571Z,2.90
2022-08-12T01:29:28.630Z,2.57
2022-08-12T01:32:24.828Z,3.30
2022-08-12T01:35:18.526Z,3.20
2022-08-12T01:38:14.705Z,2.50
2022-08-12T01:41:06.063Z,3.50
2022-08-12T01:44:16.077Z,3.20
2022-08-12T01:47:21.621Z,2.90
2022-08-12T01:50:20.595Z,2.73
2022-08-12T01:53:12.360Z,2.70
2022-08-12T01:56:16.966Z,2.90
2022-08-12T01:59:30.483Z,2.87
2022-08-12T02:02:20.548Z,2.97
2022-08-12T02:05:37.276Z,3.87
2022-08-12T02:08:53.823Z,3.13
2022-08-12T02:11:47.638Z,3.00
2022-08-12T02:14:55.455Z,3.50
2022-08-12T02:18:10.082Z,3.67
2022-08-12T02:21:05.586Z,3.00
2022-08-12T02:23:56.471Z,3.60
2022-08-12T02:26:48.798Z,3.10
2022-08-12T02:29:50.297Z,2.80
2022-08-12T02:32:48.485Z,3.03
2022-08-12T02:35:52.516Z,2.70
2022-08-12T02:38:48.269Z,2.90
2022-08-12T02:41:38.804Z,2.93
2022-08-12T02:44:33.622Z,4.03
2022-08-12T02:48:00.252Z,3.00
2022-08-12T02:50:48.911Z,3.50
2022-08-12T02:53:38.511Z,4.20
2022-08-12T02:56:28.041Z,3.77
2022-08-12T02:59:18.892Z,3.90
2022-08-12T03:02:14.608Z,3.90
2022-08-12T03:05:11.379Z,4.13
2022-08-12T03:08:31.738Z,3.77
2022-08-12T03:11:24.800Z,4.10
2022-08-12T03:14:22.987Z,4.03
2022-08-12T03:17:26.141Z,3.90
2022-08-12T03:20:28.064Z,4.00
2022-08-12T03:23:30.301Z,4.03
2022-08-12T03:26:26.135Z,3.80
2022-08-12T03:29:26.249Z,4.20
2022-08-12T03:32:36.178Z,3.70
2022-08-12T03:35:40.301Z,4.47
2022-08-12T03:38:41.976Z,3.93
2022-08-12T03:41:35.933Z,4.20
2022-08-12T03:44:46.780Z,3.93
2022-08-12T03:47:56.822Z,2.73
2022-08-12T03:51:04.791Z,3.50
2022-08-12T03:54:16.457Z,4.43
2022-08-12T03:57:25.622Z,4.33
2022-08-12T04:00:30.604Z,4.27
2022-08-12T04:03:42.363Z,4.83
2022-08-12T04:06:36.102Z,3.60
2022-08-12T04:09:34.685Z,4.27
2022-08-12T04:12:42.652Z,4.33
2022-08-12T04:15:33.733Z,3.70
2022-08-12T04:18:26.828Z,4.93
2022-08-12T04:21:18.792Z,4.03
2022-08-12T04:24:09.177Z,3.83
2022-08-12T04:27:09.489Z,4.20
2022-08-12T04:30:30.946Z,3.90
2022-08-12T04:33:18.821Z,3.60
2022-08-12T04:36:13.359Z,3.53
2022-08-12T04:39:10.835Z,3.47
2022-08-12T04:42:04.469Z,4.20
2022-08-12T04:45:01.742Z,5.20
2022-08-12T04:48:02.045Z,4.70
2022-08-12T04:51:03.445Z,4.40
2022-08-12T04:54:00.718Z,3.90
2022-08-12T04:57:03.737Z,4.33
2022-08-12T04:59:56.633Z,4.93
2022-08-12T05:02:47.908Z,4.77
2022-08-12T05:06:01.071Z,5.13
2022-08-12T05:08:52.970Z,5.10
2022-08-12T05:11:54.232Z,5.40
2022-08-12T05:14:46.328Z,3.87
2022-08-12T05:17:41.523Z,3.87
2022-08-12T05:20:45.580Z,4.30
2022-08-12T05:23:46.535Z,3.90
2022-08-12T05:26:37.749Z,4.90
2022-08-12T05:30:07.164Z,4.10
2022-08-12T05:32:46.951Z,4.23
2022-08-12T05:35:40.218Z,3.97
2022-08-12T05:42:08.601Z,4.27
2022-08-12T05:45:01.168Z,4.57
2022-08-12T05:48:05.339Z,4.37
2022-08-12T05:51:00.743Z,4.47
2022-08-12T05:53:58.985Z,3.97
2022-08-12T05:56:49.729Z,4.80
2022-08-12T05:59:44.133Z,4.97
2022-08-12T06:02:35.511Z,4.20
2022-08-12T06:05:30.580Z,4.10
2022-08-12T06:08:27.972Z,4.60
2022-08-12T06:11:23.817Z,5.20
2022-08-12T06:14:17.229Z,4.50
2022-08-12T06:17:09.773Z,5.40
2022-08-12T06:20:26.972Z,4.67
2022-08-12T06:23:32.811Z,5.93
2022-08-12T06:26:23.983Z,4.53
2022-08-12T06:30:07.318Z,4.67
2022-08-12T06:33:04.354Z,4.70
2022-08-12T06:36:06.483Z,4.53
2022-08-12T06:38:59.670Z,5.23
2022-08-12T06:42:33.195Z,5.20
2022-08-12T06:45:26.897Z,5.50
2022-08-12T06:48:45.188Z,5.50
2022-08-12T06:51:53.599Z,4.77
2022-08-12T06:54:50.395Z,4.20
2022-08-12T06:58:07.276Z,4.83
2022-08-12T07:01:01.770Z,4.07
2022-08-12T07:04:09.361Z,5.10
2022-08-12T07:07:14.513Z,4.27
2022-08-12T07:10:08.933Z,4.30
2022-08-12T07:13:01.276Z,4.63
2022-08-12T07:15:57.498Z,4.20
2022-08-12T07:18:52.449Z,3.93
2022-08-12T07:22:02.300Z,4.78
2022-08-12T07:25:10.511Z,4.20
2022-08-12T07:28:04.086Z,4.38
2022-08-12T07:31:11.054Z,4.32
2022-08-12T07:34:02.638Z,4.68
2022-08-12T07:36:52.893Z,4.97
2022-08-12T07:39:51.356Z,4.50
2022-08-12T07:42:50.092Z,4.63
2022-08-12T07:45:45.149Z,4.28
2022-08-12T07:48:41.041Z,4.85
2022-08-12T07:51:32.683Z,4.93
2022-08-12T07:54:24.582Z,4.25
2022-08-12T07:57:26.520Z,4.78
2022-08-12T08:00:26.414Z,4.82
2022-08-12T08:03:23.241Z,4.80
2022-08-12T08:06:18.790Z,4.38
2022-08-12T08:09:11.984Z,4.07
2022-08-12T08:12:20.448Z,4.30
2022-08-12T08:15:12.783Z,4.22
2022-08-12T08:18:07.575Z,4.38
2022-08-12T08:20:57.948Z,3.78
2022-08-12T08:24:06.784Z,4.57
2022-08-12T08:27:03.396Z,4.50
2022-08-12T08:29:55.989Z,3.30
2022-08-12T08:32:49.420Z,4.07
2022-08-12T08:35:46.728Z,3.50
2022-08-12T08:38:53.276Z,3.80
2022-08-12T08:42:16.727Z,3.45
2022-08-12T08:45:15.332Z,3.25
2022-08-12T08:48:04.727Z,3.72
2022-08-12T08:51:04.709Z,3.80
2022-08-12T08:54:01.053Z,3.28
2022-08-12T08:56:56.635Z,3.33
2022-08-12T08:59:51.717Z,2.95
2022-08-12T09:02:49.481Z,3.47
2022-08-12T09:06:02.038Z,3.20
2022-08-12T09:08:56.231Z,2.60
2022-08-12T09:12:12.209Z,3.17
2022-08-12T09:15:16.866Z,3.08
2022-08-12T09:18:12.214Z,2.58
2022-08-12T09:21:08.543Z,3.33
2022-08-12T09:27:19.020Z,2.60
2022-08-12T09:30:16.022Z,2.78
2022-08-12T09:33:18.790Z,3.35
2022-08-12T09:36:31.240Z,3.40
2022-08-12T09:40:05.163Z,2.65
2022-08-12T09:43:17.736Z,2.40
2022-08-12T09:46:24.920Z,3.17
2022-08-12T09:49:18.639Z,2.05
2022-08-12T09:52:22.757Z,2.53
2022-08-12T09:56:05.910Z,2.67
2022-08-12T09:58:59.844Z,2.60
2022-08-12T10:02:42.011Z,2.38
2022-08-12T10:05:20.221Z,2.45
2022-08-12T10:08:13.483Z,2.40
2022-08-12T10:11:26.469Z,2.33
2022-08-12T10:14:35.005Z,2.42
2022-08-12T10:17:33.764Z,2.60
2022-08-12T10:20:25.446Z,2.40
2022-08-12T10:23:14.433Z,2.45
2022-08-12T10:26:36.815Z,2.75
2022-08-12T10:30:03.474Z,2.35
2022-08-12T10:33:00.486Z,2.60
2022-08-12T10:35:56.653Z,2.35
2022-08-12T10:38:47.715Z,2.60
2022-08-12T10:42:00.043Z,2.72
2022-08-12T10:45:08.138Z,3.83
2022-08-12T10:48:21.711Z,2.58
2022-08-12T10:52:03.525Z,2.40
2022-08-12T10:58:12.714Z,2.55
2022-08-12T11:01:48.856Z,2.70
2022-08-12T11:04:35.407Z,2.70
2022-08-12T11:08:33.799Z,2.45
2022-08-12T11:10:51.215Z,2.72
2022-08-12T11:13:46.941Z,3.00
2022-08-12T11:17:33.492Z,2.67
2022-08-12T11:19:59.359Z,2.55
2022-08-12T11:23:04.285Z,2.30
2022-08-12T11:26:11.436Z,2.40
2022-08-12T11:29:05.585Z,2.33
2022-08-12T11:32:15.201Z,2.10
2022-08-12T11:35:08.582Z,2.42
2022-08-12T11:37:59.249Z,2.20
2022-08-12T11:40:50.623Z,2.30
2022-08-12T11:43:50.280Z,2.30
2022-08-12T11:46:51.033Z,1.98
2022-08-12T11:49:51.878Z,3.08
2022-08-12T11:52:56.477Z,2.10
2022-08-12T11:55:50.882Z,2.33
2022-08-12T12:02:03.197Z,2.05
2022-08-12T12:05:02.684Z,2.13
2022-08-12T12:08:40.391Z,2.10
2022-08-12T12:11:09.421Z,1.88
2022-08-12T12:14:07.733Z,1.90
2022-08-12T12:17:03.523Z,1.90
2022-08-12T12:20:03.789Z,2.10
2022-08-12T12:22:52.839Z,1.80
2022-08-12T12:26:07.159Z,1.83
2022-08-12T12:28:57.277Z,1.60
2022-08-12T12:32:08.993Z,1.92
2022-08-12T12:36:06.408Z,1.75
2022-08-12T12:38:27.176Z,2.17
2022-08-12T12:41:18.093Z,2.50
2022-08-12T12:44:13.350Z,2.10
2022-08-12T12:47:28.796Z,1.98
2022-08-12T12:50:35.064Z,2.10
2022-08-12T12:54:05.121Z,1.75
2022-08-12T12:56:34.589Z,1.85
2022-08-12T12:59:54.720Z,2.20
2022-08-12T13:02:40.521Z,1.80
2022-08-12T13:05:42.550Z,1.95
2022-08-12T13:08:38.040Z,1.90
2022-08-12T13:11:42.261Z,2.50
2022-08-12T13:14:40.387Z,2.00
2022-08-12T13:18:02.091Z,2.30
2022-08-12T13:20:59.222Z,1.98
2022-08-12T13:23:52.021Z,1.90
2022-08-12T13:26:45.739Z,1.85
2022-08-12T13:29:39.249Z,2.22
2022-08-12T13:32:32.811Z,2.15
2022-08-12T13:36:02.620Z,1.83
2022-08-12T13:38:45.009Z,2.50
2022-08-12T13:41:50.219Z,2.20
2022-08-12T13:44:40.781Z,2.10
2022-08-12T13:47:29.838Z,2.13
2022-08-12T13:50:21.979Z,2.25
2022-08-12T13:53:24.281Z,2.33
2022-08-12T13:56:24.718Z,2.17
2022-08-12T13:59:24.557Z,2.10
2022-08-12T14:02:24.380Z,2.35
2022-08-12T14:05:31.482Z,2.10
2022-08-12T14:08:24.366Z,1.98
2022-08-12T14:11:28.139Z,1.83
2022-08-12T14:14:22.590Z,2.33
2022-08-12T14:17:19.911Z,2.00
2022-08-12T14:20:15.780Z,2.30
2022-08-12T14:24:01.331Z,2.20
2022-08-12T14:26:20.010Z,2.03
2022-08-12T14:29:11.781Z,2.00
2022-08-12T14:32:24.402Z,2.17
2022-08-12T14:35:13.440Z,1.85
2022-08-12T14:38:12.913Z,1.80
2022-08-12T14:41:05.165Z,1.95
2022-08-12T14:44:56.824Z,2.13
2022-08-12T14:47:15.384Z,1.98
2022-08-12T14:50:58.237Z,1.88
2022-08-12T15:00:05.614Z,2.20
2022-08-12T15:02:57.965Z,1.95
2022-08-12T15:06:05.109Z,2.33
2022-08-12T15:08:56.360Z,1.90
2022-08-12T15:11:55.521Z,2.13
2022-08-12T15:14:54.229Z,2.20
2022-08-12T15:17:43.942Z,1.88
2022-08-12T15:20:37.916Z,2.10
2022-08-12T15:23:32.909Z,1.90
2022-08-12T15:26:27.369Z,2.28
2022-08-12T15:29:21.673Z,2.22
2022-08-12T15:32:15.994Z,2.10
2022-08-12T15:35:07.852Z,2.08
2022-08-12T15:38:09.975Z,2.00
2022-08-12T15:41:00.898Z,2.22
2022-08-12T15:44:36.570Z,2.25
2022-08-12T15:47:02.259Z,1.77
2022-08-12T15:50:00.618Z,1.95
2022-08-12T15:52:55.080Z,1.75
2022-08-12T15:55:53.886Z,2.15
2022-08-12T15:58:49.932Z,1.88
2022-08-12T16:01:41.644Z,1.90
2022-08-12T16:04:30.603Z,2.05
2022-08-12T16:07:31.060Z,2.30
2022-08-12T16:10:25.295Z,2.00
2022-08-12T16:13:32.256Z,2.10
2022-08-12T16:16:25.386Z,2.42
2022-08-12T16:19:19.062Z,4.13
2022-08-12T16:22:30.138Z,2.10
2022-08-12T16:25:22.680Z,1.83
2022-08-12T16:28:15.408Z,2.00
2022-08-12T16:31:09.902Z,1.90
2022-08-12T16:34:04.198Z,1.83
2022-08-12T16:37:03.210Z,1.63
2022-08-12T16:40:01.187Z,1.60
2022-08-12T16:42:53.435Z,2.45
2022-08-12T16:46:24.041Z,2.00
2022-08-12T16:49:13.740Z,2.13
2022-08-12T16:52:07.946Z,2.35
2022-08-12T16:55:05.808Z,1.70
2022-08-12T16:58:25.512Z,2.70
2022-08-12T17:01:19.924Z,3.30
2022-08-12T17:04:19.940Z,1.83
2022-08-12T17:07:19.205Z,1.92
2022-08-12T17:10:18.170Z,1.75
2022-08-12T17:13:13.724Z,1.83
2022-08-12T17:16:06.301Z,1.60
2022-08-12T17:19:14.850Z,1.75
2022-08-12T17:22:12.002Z,2.60
2022-08-12T17:25:05.619Z,2.67
2022-08-12T17:28:05.977Z,2.67
2022-08-12T17:31:03.729Z,2.25
2022-08-12T17:33:58.318Z,1.90
2022-08-12T17:36:50.488Z,2.85
2022-08-12T17:40:15.210Z,2.22
2022-08-12T17:42:59.894Z,1.50
2022-08-12T17:45:55.572Z,1.65
2022-08-12T17:48:55.235Z,1.70
2022-08-12T17:51:50.242Z,1.67
2022-08-12T17:54:42.279Z,2.60
2022-08-12T17:57:35.371Z,1.85
2022-08-12T18:00:42.073Z,1.63
2022-08-12T18:04:05.145Z,1.88
2022-08-12T18:06:50.889Z,2.08
2022-08-12T18:09:44.530Z,1.50
2022-08-12T18:12:42.740Z,2.22
2022-08-12T18:16:03.923Z,1.75
2022-08-12T18:18:58.668Z,1.63
2022-08-12T18:22:03.123Z,2.10
2022-08-12T18:25:02.718Z,1.73
2022-08-12T18:28:16.866Z,1.60
2022-08-12T18:31:11.923Z,1.73
2022-08-12T18:34:07.541Z,1.93
2022-08-12T18:37:41.239Z,2.10
2022-08-12T18:40:45.114Z,2.10
2022-08-12T18:43:59.553Z,2.07
2022-08-12T18:46:55.761Z,1.70
2022-08-12T18:49:49.709Z,1.33
2022-08-12T18:52:45.164Z,2.37
2022-08-12T18:55:42.417Z,2.10
2022-08-12T18:58:59.999Z,1.60
2022-08-12T19:02:19.569Z,1.90
2022-08-12T19:05:15.356Z,1.70
2022-08-12T19:08:04.554Z,1.70
2022-08-12T19:11:26.860Z,2.17
2022-08-12T19:14:29.022Z,1.43
2022-08-12T19:17:18.643Z,1.50
2022-08-12T19:20:13.885Z,1.50
2022-08-12T19:23:16.789Z,2.37
2022-08-12T19:26:18.468Z,1.83
2022-08-12T19:29:20.777Z,1.60
2022-08-12T19:32:24.066Z,1.77
2022-08-12T19:36:06.622Z,1.77
2022-08-12T19:38:56.863Z,1.97
2022-08-12T19:42:00.539Z,1.80
2022-08-12T19:44:54.862Z,1.47
2022-08-12T19:47:50.399Z,1.50
2022-08-12T19:50:44.478Z,1.60
2022-08-12T19:53:58.115Z,1.60
2022-08-12T19:56:57.626Z,2.10
2022-08-12T20:00:04.148Z,1.50
2022-08-12T20:02:56.203Z,1.80
2022-08-12T20:06:06.940Z,1.87
2022-08-12T20:08:58.240Z,1.90
2022-08-12T20:12:11.677Z,2.00
2022-08-12T20:15:13.754Z,1.50
2022-08-12T20:18:43.714Z,1.30
2022-08-12T20:21:42.821Z,1.30
2022-08-12T20:24:38.532Z,1.80
2022-08-12T20:28:05.524Z,1.40
2022-08-12T20:31:05.444Z,1.70
2022-08-12T20:34:00.260Z,1.77
2022-08-12T20:36:57.271Z,1.23
2022-08-12T20:40:04.366Z,1.50
2022-08-12T20:42:55.571Z,1.27
2022-08-12T20:46:04.269Z,2.03
2022-08-12T20:48:57.768Z,1.70
2022-08-12T20:51:54.846Z,1.33
2022-08-12T20:54:50.311Z,1.53
2022-08-12T20:58:02.472Z,1.60
2022-08-12T21:00:53.543Z,1.47
2022-08-12T21:04:05.855Z,1.40
2022-08-12T21:07:08.245Z,1.60
2022-08-12T21:10:01.636Z,1.27
2022-08-12T21:13:20.192Z,1.53
2022-08-12T21:16:35.470Z,1.60
2022-08-12T21:19:24.923Z,1.40
2022-08-12T21:22:41.159Z,1.03
2022-08-12T21:25:54.798Z,1.17
2022-08-12T21:28:58.839Z,1.47
2022-08-12T21:32:46.970Z,1.20
2022-08-12T21:35:23.915Z,1.40
2022-08-12T21:38:19.585Z,1.37
2022-08-12T21:41:26.723Z,1.27
2022-08-12T21:44:24.629Z,1.20
2022-08-12T21:47:32.570Z,1.50
2022-08-12T21:50:42.065Z,1.30
2022-08-12T21:54:07.140Z,1.20
2022-08-12T21:56:56.059Z,0.90
2022-08-12T21:59:48.096Z,1.20
2022-08-12T22:03:02.004Z,1.23
2022-08-12T22:06:09.782Z,1.17
2022-08-12T22:09:18.413Z,1.33
2022-08-12T22:12:26.680Z,1.53
2022-08-12T22:15:24.766Z,1.37
2022-08-12T22:18:28.460Z,1.30
2022-08-12T22:21:22.036Z,1.00
2022-08-12T22:24:27.180Z,1.13
2022-08-12T22:27:33.043Z,1.23
2022-08-12T22:30:41.832Z,1.20
2022-08-12T22:33:54.160Z,1.30
2022-08-12T22:36:53.827Z,1.30
2022-08-12T22:39:49.504Z,1.40
2022-08-12T22:42:58.498Z,1.23
2022-08-12T22:46:30.469Z,1.30
2022-08-12T22:49:36.815Z,1.10
2022-08-12T22:52:37.268Z,1.20
2022-08-12T22:56:00.929Z,1.50
2022-08-12T22:58:46.342Z,1.20
2022-08-12T23:01:52.398Z,2.00
2022-08-12T23:04:54.909Z,1.10
2022-08-12T23:07:52.928Z,1.23
2022-08-12T23:10:56.752Z,1.23
2022-08-12T23:14:03.418Z,1.17
2022-08-12T23:16:55.274Z,1.60
2022-08-12T23:19:51.778Z,1.33
2022-08-12T23:23:08.999Z,1.30
2022-08-12T23:25:55.909Z,1.60
2022-08-12T23:29:12.764Z,1.43
2022-08-12T23:32:35.547Z,1.50
2022-08-12T23:35:45.570Z,1.17
2022-08-12T23:38:42.411Z,1.23
2022-08-12T23:41:56.656Z,1.60
2022-08-12T23:45:03.461Z,1.30
2022-08-12T23:48:02.859Z,1.60
2022-08-12T23:51:22.436Z,1.20
2022-08-12T23:54:33.074Z,1.13
2022-08-12T23:58:17.169Z,1.63
